Last 24 Hour KALB Observations

Last 24 hours of surface weather observations from the Albany County Airport. Observations taken by the National Weather Service.


		
KALB 222251Z 00000KT 10SM FEW120 BKN140 OVC250 M09/M17 A3061 RMK AO2 SLP374
 T10941172=
KALB 222351Z 00000KT 10SM BKN110 OVC140 M09/M17 A3059 RMK AO2 SLP365 4/009
 T10941167 11078 21100 58009=
KALB 230051Z 00000KT 10SM SCT110 BKN150 OVC200 M09/M18 A3057 RMK AO2 SLP357
 T10891183=
KALB 230151Z 00000KT 10SM SCT110 BKN150 OVC190 M11/M18 A3054 RMK AO2 SLP348
 T11061178=
KALB 230251Z 00000KT 10SM SCT120 OVC150 M09/M18 A3052 RMK AO2 SLP343 OCNL
 BINOVC T10891178 56022=
KALB 230351Z 00000KT 10SM SCT090 BKN120 BKN160 M09/M18 A3050 RMK AO2 SLP334
 T10941183=
KALB 230451Z 00000KT 10SM BKN090 BKN250 M12/M17 A3047 RMK AO2 SLP324 T11171172
 410781178=
KALB 230551Z 34003KT 10SM FEW090 BKN230 M13/M18 A3041 RMK AO2 SLP304 4/009
 T11281178 11083 21128 58039=
KALB 230651Z 00000KT 10SM BKN140 BKN230 M12/M18 A3039 RMK AO2 SLP296 T11221183=
KALB 230751Z 00000KT 10SM OVC140 M12/M17 A3035 RMK AO2 SLP284 T11171172=
KALB 230851Z 18010KT 10SM FEW140 BKN190 BKN250 M04/M14 A3033 RMK AO2 SLP276
 T10441144 58026=
KALB 230951Z 18012G23KT 10SM FEW110 BKN140 OVC190 M04/M14 A3028 RMK AO2 SLP260
 T10441139=
KALB 231051Z 18013G23KT 10SM FEW120 BKN130 OVC190 M04/M14 A3026 RMK AO2 SLP252
 T10391139=
KALB 231151Z 17011KT 10SM SCT065 BKN075 OVC110 M04/M13 A3029 RMK AO2 SLP261
 VIRGA OHD 4/009 T10391133 11039 21128 55015=
KALB 231241Z 17011KT 10SM -PL SCT041 BKN060 OVC080 M03/M13 A3026 RMK AO2 PLB41
 PCPN VRY LGT P0000 T10331128=
KALB 231241Z 17011KT 10SM -PL SCT041 BKN060 OVC080 M03/M13 A3026=
KALB 231251Z 17012G19KT 10SM SCT037 BKN060 OVC080 M03/M13 A3025 RMK AO2
 PLB41E51 SLP249 PRESENT WX VCSH P0000 T10331128=
KALB 231320Z 17013G20KT 10SM -FZRA BKN045 BKN070 OVC090 M03/M13 A3024 RMK AO2
 FZRAB20 P0000 I1000 T10281128=
KALB 231320Z 17013G20KT 10SM -FZRA BKN045 BKN070 OVC090 M03/M13 A3024=
KALB 231327Z 18008KT 10SM BKN045 BKN070 OVC090 M03/M12 A3024 RMK AO2 FZRAB20E27
 PRESENT WX VCSH P0000 I1000 T10281122=
KALB 231327Z 18008KT 10SM BKN045 BKN070 OVC090 M03/M12 A3024=
KALB 231351Z 18014KT 10SM SCT045 BKN050 OVC080 M03/M12 A3023 RMK AO2 FZRAB20E27
 SLP243 PRESENT WX VCSH P0000 I1000 T10281122=
KALB 231451Z 17012G21KT 10SM BKN043 OVC080 M02/M12 A3020 RMK AO2 SLP231 PRESENT
 WX VCSH 60000 I3000 T10221117 57029=
KALB 231551Z 17013G19KT 10SM OVC044 M01/M11 A3018 RMK AO2 SLP223 PRESENT WX
 VCSH T10111106=
KALB 231651Z 17014G20KT 10SM BKN043 OVC085 M01/M09 A3013 RMK AO2 PK WND
 19026/1631 SLP206 T10061094=
KALB 231741Z 18014G26KT 10SM -FZRA OVC043 M01/M09 A3010 RMK AO2 PK WND
 18026/1732 FZRAB41 P0000 I1000 T10061089=
KALB 231741Z 18014G26KT 10SM -FZRA OVC043 M01/M09 A3010=
KALB 231751Z 18016KT 10SM -FZRA OVC043 M01/M09 A3009 RMK AO2 PK WND 18026/1732
 FZRAB41 SLP193 4/009 933015 PCPN VRY LGT P0000 60000 I1000 I6000 T10061089
 11006 21033 58038=
KALB 231816Z 17015G21KT 10SM BKN046 OVC060 00/M08 A3007 RMK AO2 FZRAE16 PRESENT
 WX VCSH P0000 I1000 T00001083=
KALB 231816Z 17015G21KT 10SM BKN046 OVC060 00/M08 A3007=
KALB 231851Z 18012G20KT 10SM OVC049 01/M08 A3005 RMK AO2 FZRAE16 SLP180 BINOVC
 P0000 I1000 T00061078=
KALB 231951Z 17013G19KT 10SM SCT045 OVC070 01/M06 A3003 RMK AO2 RAB28E41 SLP174
 PRESENT WX VCSH P0000 T00111056=
KALB 232051Z 17011G21KT 10SM -RA FEW040 BKN070 BKN080 02/M04 A2999 RMK AO2
 RAB05 SLP158 PCPN VRY LGT AND INTMT P0000 60000 I3000 T00171044 58033=
KALB 232151Z 17016G24KT 10SM -RA FEW045 BKN060 OVC075 02/M03 A2997 RMK AO2 PK
 WND 17026/2120 RAE2059B25 SLP151 P0000 T00221028=
KALB 232251Z 18015G23KT 10SM -RA FEW045 BKN055 OVC070 03/M02 A2995 RMK AO2
 SLP145 P0001 T00281022=